createdAt,value
2022-12-29T00:01:45.809Z,3.10
2022-12-29T00:04:15.793Z,3.00
2022-12-29T00:06:44.137Z,3.20
2022-12-29T00:09:12.810Z,3.30
2022-12-29T00:11:40.601Z,3.30
2022-12-29T00:14:27.365Z,3.50
2022-12-29T00:16:55.154Z,3.70
2022-12-29T00:19:41.722Z,3.60
2022-12-29T00:22:28.892Z,3.70
2022-12-29T00:25:14.362Z,3.80
2022-12-29T00:28:06.418Z,3.70
2022-12-29T00:30:53.289Z,3.50
2022-12-29T00:33:39.773Z,3.00
2022-12-29T00:36:10.214Z,3.00
2022-12-29T00:39:10.783Z,2.70
2022-12-29T00:41:56.165Z,2.50
2022-12-29T00:44:23.977Z,2.50
2022-12-29T00:46:51.854Z,2.30
2022-12-29T00:49:34.884Z,2.30
2022-12-29T00:52:05.316Z,2.10
2022-12-29T00:54:34.536Z,2.20
2022-12-29T00:57:02.519Z,1.70
2022-12-29T00:59:30.316Z,1.80
2022-12-29T01:01:58.269Z,1.70
2022-12-29T01:04:26.900Z,1.80
2022-12-29T01:06:54.790Z,1.60
2022-12-29T01:09:41.378Z,1.50
2022-12-29T01:12:11.039Z,1.60
2022-12-29T01:14:38.942Z,1.60
2022-12-29T01:17:06.992Z,1.50
2022-12-29T01:19:35.240Z,1.80
2022-12-29T01:22:03.132Z,2.30
2022-12-29T01:24:32.360Z,2.70
2022-12-29T01:27:00.243Z,2.90
2022-12-29T01:29:28.311Z,3.50
2022-12-29T01:31:56.141Z,3.50
2022-12-29T01:34:24.057Z,3.50
2022-12-29T01:36:51.830Z,3.60
2022-12-29T01:39:19.619Z,3.40
2022-12-29T01:41:48.740Z,3.60
2022-12-29T01:44:56.184Z,3.60
2022-12-29T01:47:35.652Z,3.60
2022-12-29T01:50:06.668Z,3.60
2022-12-29T01:52:35.216Z,3.50
2022-12-29T01:55:03.173Z,3.40
2022-12-29T01:57:33.635Z,3.40
2022-12-29T02:00:04.993Z,3.40
2022-12-29T02:02:33.609Z,3.40
2022-12-29T02:05:04.612Z,3.20
2022-12-29T02:07:32.722Z,2.90
2022-12-29T02:10:00.859Z,2.80
2022-12-29T02:12:28.683Z,2.70
2022-12-29T02:14:59.224Z,2.30
2022-12-29T02:17:34.029Z,2.20
2022-12-29T02:20:37.732Z,2.20
2022-12-29T02:23:16.249Z,2.40
2022-12-29T02:26:22.538Z,2.30
2022-12-29T02:29:05.356Z,2.20
2022-12-29T02:31:36.450Z,2.20
2022-12-29T02:34:08.304Z,2.70
2022-12-29T02:36:41.354Z,2.80
2022-12-29T02:39:13.411Z,3.20
2022-12-29T02:41:47.919Z,3.10
2022-12-29T02:44:18.503Z,2.90
2022-12-29T02:46:49.416Z,2.50
2022-12-29T02:49:20.660Z,2.40
2022-12-29T02:51:52.706Z,2.10
2022-12-29T02:54:38.474Z,2.10
2022-12-29T02:57:10.168Z,1.70
2022-12-29T02:59:38.356Z,1.50
2022-12-29T03:02:21.543Z,1.60
2022-12-29T03:04:57.308Z,1.70
2022-12-29T03:07:26.545Z,1.30
2022-12-29T03:09:57.811Z,1.40
2022-12-29T03:12:47.011Z,1.20
2022-12-29T03:15:34.335Z,1.00
2022-12-29T03:18:06.749Z,1.00
2022-12-29T03:20:37.457Z,1.20
2022-12-29T03:23:05.437Z,1.10
2022-12-29T03:25:34.405Z,1.00
2022-12-29T03:28:03.610Z,1.30
2022-12-29T03:30:31.709Z,2.00
2022-12-29T03:33:00.988Z,2.70
2022-12-29T03:35:32.278Z,2.70
2022-12-29T03:38:04.704Z,2.80
2022-12-29T03:40:33.187Z,3.10
2022-12-29T03:43:01.358Z,2.70
2022-12-29T03:45:50.743Z,2.70
2022-12-29T03:48:27.884Z,2.50
2022-12-29T03:50:57.603Z,2.30
2022-12-29T03:53:37.796Z,2.40
2022-12-29T03:56:07.539Z,2.20
2022-12-29T03:58:35.786Z,1.80
2022-12-29T04:01:03.997Z,1.90
2022-12-29T04:03:44.832Z,2.00
2022-12-29T04:06:14.506Z,2.00
2022-12-29T04:08:42.903Z,2.30
2022-12-29T04:11:11.212Z,2.30
2022-12-29T04:13:41.953Z,2.60
2022-12-29T04:16:10.459Z,2.80
2022-12-29T04:18:38.459Z,2.80
2022-12-29T04:21:06.587Z,2.60
2022-12-29T04:23:38.113Z,2.70
2022-12-29T04:26:07.398Z,2.80
2022-12-29T04:28:36.405Z,2.90
2022-12-29T04:31:04.825Z,3.10
2022-12-29T04:33:32.949Z,2.90
2022-12-29T04:36:01.459Z,2.90
2022-12-29T04:38:29.706Z,3.20
2022-12-29T04:41:01.182Z,3.20
2022-12-29T04:43:29.095Z,3.30
2022-12-29T04:45:57.227Z,3.60
2022-12-29T04:48:25.703Z,3.60
2022-12-29T04:50:53.863Z,3.70
2022-12-29T04:53:21.923Z,3.50
2022-12-29T04:55:51.367Z,3.50
2022-12-29T04:58:23.093Z,3.40
2022-12-29T05:00:51.889Z,3.50
2022-12-29T05:03:20.444Z,3.70
2022-12-29T05:05:48.994Z,3.60
2022-12-29T05:08:19.005Z,3.50
2022-12-29T05:10:50.255Z,3.60
2022-12-29T05:13:20.429Z,3.70
2022-12-29T05:19:37.245Z,3.70
2022-12-29T05:22:05.541Z,4.10
2022-12-29T05:24:33.840Z,4.10
2022-12-29T05:27:08.243Z,5.10
2022-12-29T05:29:37.760Z,5.80
2022-12-29T05:32:06.619Z,5.90
2022-12-29T05:34:36.145Z,5.70
2022-12-29T05:37:04.931Z,5.90
2022-12-29T05:39:36.282Z,6.10
2022-12-29T05:42:04.763Z,6.20
2022-12-29T05:44:33.430Z,6.10
2022-12-29T05:47:02.952Z,6.30
2022-12-29T05:49:31.542Z,6.30
2022-12-29T05:51:59.681Z,6.30
2022-12-29T05:54:27.594Z,6.40
2022-12-29T05:56:55.655Z,6.40
2022-12-29T05:59:24.059Z,6.50
2022-12-29T06:01:52.346Z,6.50
2022-12-29T06:04:22.223Z,6.30
2022-12-29T06:06:50.660Z,6.10
2022-12-29T06:09:19.032Z,5.90
2022-12-29T06:11:47.067Z,6.10
2022-12-29T06:14:15.175Z,6.10
2022-12-29T06:16:44.328Z,5.80
2022-12-29T06:19:12.291Z,5.20
2022-12-29T06:21:42.268Z,4.90
2022-12-29T06:24:12.047Z,4.70
2022-12-29T06:26:41.396Z,5.10
2022-12-29T06:29:10.526Z,5.50
2022-12-29T06:31:38.859Z,5.70
2022-12-29T06:34:08.636Z,5.70
2022-12-29T06:36:37.247Z,5.80
2022-12-29T06:39:06.814Z,5.80
2022-12-29T06:41:35.080Z,5.80
2022-12-29T06:44:03.010Z,5.90
2022-12-29T06:46:31.849Z,5.80
2022-12-29T06:49:02.984Z,5.90
2022-12-29T06:51:56.757Z,5.90
2022-12-29T06:54:26.488Z,5.20
2022-12-29T06:56:54.745Z,4.80
2022-12-29T06:59:23.066Z,4.70
2022-12-29T07:01:51.793Z,5.00
2022-12-29T07:04:20.399Z,5.00
2022-12-29T07:06:48.655Z,4.90
2022-12-29T07:09:17.124Z,4.90
2022-12-29T07:11:49.108Z,4.60
2022-12-29T07:14:17.394Z,4.40
2022-12-29T07:16:45.604Z,4.10
2022-12-29T07:19:13.845Z,4.20
2022-12-29T07:21:48.276Z,3.80
2022-12-29T07:24:16.718Z,4.00
2022-12-29T07:26:46.735Z,3.80
2022-12-29T07:29:15.126Z,3.90
2022-12-29T07:31:43.679Z,3.60
2022-12-29T07:34:12.123Z,3.50
2022-12-29T07:36:40.535Z,3.40
2022-12-29T07:39:08.972Z,3.40
2022-12-29T07:41:37.170Z,3.60
2022-12-29T07:44:07.059Z,3.70
2022-12-29T07:46:56.612Z,3.80
2022-12-29T07:49:23.781Z,3.80
2022-12-29T07:51:51.957Z,3.70
2022-12-29T07:54:20.400Z,3.60
2022-12-29T07:56:48.520Z,3.50
2022-12-29T07:59:18.591Z,3.60
2022-12-29T08:01:46.963Z,3.80
2022-12-29T08:04:15.713Z,3.80
2022-12-29T08:06:43.952Z,3.80
2022-12-29T08:09:18.003Z,3.70
2022-12-29T08:11:48.109Z,3.70
2022-12-29T08:14:17.773Z,3.30
2022-12-29T08:16:46.107Z,3.30
2022-12-29T08:19:14.697Z,3.10
2022-12-29T08:21:43.098Z,3.10
2022-12-29T08:24:11.281Z,3.30
2022-12-29T08:26:39.857Z,3.40
2022-12-29T08:29:14.553Z,3.60
2022-12-29T08:34:57.320Z,3.40
2022-12-29T08:37:30.937Z,3.60
2022-12-29T08:40:01.424Z,3.90
2022-12-29T08:42:32.188Z,4.00
2022-12-29T08:45:00.650Z,4.20
2022-12-29T08:47:30.236Z,4.30
2022-12-29T08:50:45.012Z,4.40
2022-12-29T08:52:47.134Z,4.80
2022-12-29T08:55:15.343Z,5.30
2022-12-29T08:57:43.456Z,5.60
2022-12-29T09:00:13.660Z,6.00
2022-12-29T09:02:43.252Z,6.30
2022-12-29T09:05:11.994Z,6.70
2022-12-29T09:07:40.315Z,7.00
2022-12-29T09:10:08.790Z,7.00
2022-12-29T09:12:37.054Z,7.00
2022-12-29T09:15:06.308Z,7.00
2022-12-29T09:17:44.484Z,6.90
2022-12-29T09:20:14.394Z,6.90
2022-12-29T09:22:42.479Z,6.60
2022-12-29T09:25:11.334Z,6.40
2022-12-29T09:27:39.602Z,6.50
2022-12-29T09:30:09.328Z,6.60
2022-12-29T09:32:43.598Z,6.90
2022-12-29T09:35:14.672Z,7.10
2022-12-29T09:37:42.875Z,7.50
2022-12-29T09:40:19.261Z,7.80
2022-12-29T09:42:51.920Z,8.10
2022-12-29T09:45:22.687Z,8.30
2022-12-29T09:47:51.022Z,8.30
2022-12-29T09:50:24.231Z,8.30
2022-12-29T09:52:55.264Z,8.50
2022-12-29T09:55:24.467Z,8.70
2022-12-29T09:57:56.020Z,8.70
2022-12-29T10:00:38.495Z,8.70
2022-12-29T10:03:11.797Z,8.70
2022-12-29T10:05:43.687Z,8.90
2022-12-29T10:08:20.594Z,8.90
2022-12-29T10:10:53.195Z,9.00
2022-12-29T10:13:30.620Z,9.10
2022-12-29T10:16:05.292Z,9.30
2022-12-29T10:18:55.455Z,9.50
2022-12-29T10:21:30.784Z,9.60
2022-12-29T10:23:58.993Z,9.60
2022-12-29T10:26:29.760Z,9.80
2022-12-29T10:28:59.724Z,10.00
2022-12-29T10:31:31.380Z,10.40
2022-12-29T10:34:01.038Z,10.40
2022-12-29T10:36:32.931Z,10.20
2022-12-29T10:39:06.433Z,10.00
2022-12-29T10:41:38.596Z,9.80
2022-12-29T10:44:06.639Z,9.70
2022-12-29T10:46:36.401Z,9.80
2022-12-29T10:49:04.661Z,9.70
2022-12-29T10:51:38.976Z,9.70
2022-12-29T10:54:08.911Z,9.70
2022-12-29T10:56:37.791Z,9.60
2022-12-29T10:59:08.521Z,9.70
2022-12-29T11:01:39.692Z,9.70
2022-12-29T11:04:09.834Z,9.70
2022-12-29T11:06:39.239Z,9.60
2022-12-29T11:09:12.170Z,9.60
2022-12-29T11:11:40.174Z,9.60
2022-12-29T11:14:14.579Z,9.70
2022-12-29T11:16:45.192Z,9.70
2022-12-29T11:19:24.364Z,9.70
2022-12-29T11:21:53.871Z,9.70
2022-12-29T11:24:23.510Z,9.70
2022-12-29T11:26:54.033Z,9.80
2022-12-29T11:29:29.189Z,9.90
2022-12-29T11:31:59.157Z,9.90
2022-12-29T11:34:28.161Z,10.00
2022-12-29T11:37:02.097Z,10.00
2022-12-29T11:39:35.832Z,10.00
2022-12-29T11:42:04.607Z,10.00
2022-12-29T11:44:37.098Z,10.00
2022-12-29T11:47:05.160Z,10.00
2022-12-29T11:49:33.251Z,10.00
2022-12-29T11:52:02.812Z,10.10
2022-12-29T11:54:33.311Z,10.20
2022-12-29T11:57:10.116Z,10.30
2022-12-29T11:59:43.758Z,10.30
2022-12-29T12:02:40.592Z,10.30
2022-12-29T12:05:15.049Z,10.20
2022-12-29T12:07:45.478Z,10.20
2022-12-29T12:10:18.416Z,10.20
2022-12-29T12:12:49.685Z,10.20
2022-12-29T12:15:20.040Z,10.20
2022-12-29T12:17:51.823Z,10.20
2022-12-29T12:20:22.965Z,10.20
2022-12-29T12:22:57.864Z,10.20
2022-12-29T12:25:26.676Z,10.30
2022-12-29T12:27:57.811Z,10.30
2022-12-29T12:30:26.385Z,10.40
2022-12-29T12:32:56.607Z,10.60
2022-12-29T12:35:28.560Z,10.60
2022-12-29T12:38:10.104Z,10.90
2022-12-29T12:40:47.125Z,11.00
2022-12-29T12:43:24.940Z,11.00
2022-12-29T12:45:57.564Z,11.40
2022-12-29T12:48:44.401Z,11.60
2022-12-29T12:51:15.791Z,11.80
2022-12-29T12:53:51.419Z,12.10
2022-12-29T12:56:47.919Z,12.30
2022-12-29T12:59:21.632Z,12.20
2022-12-29T13:02:09.480Z,12.40
2022-12-29T13:04:49.522Z,12.60
2022-12-29T13:07:22.800Z,12.50
2022-12-29T13:09:58.280Z,12.40
2022-12-29T13:12:32.925Z,12.60
2022-12-29T13:15:07.090Z,12.80
2022-12-29T13:17:37.359Z,13.00
2022-12-29T13:20:11.259Z,13.00
2022-12-29T13:22:42.082Z,12.80
2022-12-29T13:25:21.034Z,12.80
2022-12-29T13:27:51.219Z,12.80
2022-12-29T13:30:20.238Z,12.60
2022-12-29T13:32:58.734Z,12.40
2022-12-29T13:35:34.403Z,12.40
2022-12-29T13:38:03.899Z,12.30
2022-12-29T13:40:35.365Z,11.90
2022-12-29T13:43:03.631Z,11.80
2022-12-29T13:45:32.515Z,11.80
2022-12-29T13:48:03.391Z,11.70
2022-12-29T13:50:31.936Z,11.70
2022-12-29T13:53:04.099Z,11.40
2022-12-29T13:55:36.851Z,11.50
2022-12-29T13:58:06.971Z,11.40
2022-12-29T14:00:37.929Z,11.40
2022-12-29T14:03:45.226Z,11.40
2022-12-29T14:06:17.193Z,11.20
2022-12-29T14:08:45.629Z,11.00
2022-12-29T14:11:16.516Z,11.00
2022-12-29T14:13:45.512Z,11.00
2022-12-29T14:16:28.016Z,11.00
2022-12-29T14:18:58.134Z,10.80
2022-12-29T14:21:29.547Z,10.80
2022-12-29T14:24:02.977Z,10.70
2022-12-29T14:26:38.026Z,10.70
2022-12-29T14:29:44.249Z,10.60
2022-12-29T14:32:39.530Z,10.70
2022-12-29T14:35:42.096Z,10.50
2022-12-29T14:38:16.910Z,10.40
2022-12-29T14:40:44.788Z,10.30
2022-12-29T14:44:13.947Z,10.20
2022-12-29T14:46:48.031Z,9.80
2022-12-29T14:49:21.306Z,9.90
2022-12-29T14:51:49.940Z,9.70
2022-12-29T14:54:43.168Z,9.60
2022-12-29T14:57:16.052Z,9.60
2022-12-29T14:59:44.021Z,9.60
2022-12-29T15:02:18.119Z,9.50
2022-12-29T15:04:46.190Z,9.30
2022-12-29T15:07:14.150Z,9.30
2022-12-29T15:09:44.666Z,9.20
2022-12-29T15:12:16.743Z,8.90
2022-12-29T15:14:51.872Z,8.90
2022-12-29T15:17:26.778Z,8.80
2022-12-29T15:19:54.903Z,8.90
2022-12-29T15:22:22.952Z,9.00
2022-12-29T15:24:52.064Z,8.90
2022-12-29T15:27:21.950Z,8.70
2022-12-29T15:29:49.851Z,8.50
2022-12-29T15:32:22.605Z,8.60
2022-12-29T15:34:52.931Z,8.50
2022-12-29T15:37:21.644Z,8.40
2022-12-29T15:39:49.821Z,8.30
2022-12-29T15:42:55.384Z,8.40
2022-12-29T15:45:23.461Z,8.10
2022-12-29T15:47:51.300Z,8.00
2022-12-29T15:50:24.306Z,8.10
2022-12-29T15:52:52.449Z,7.80
2022-12-29T15:55:22.724Z,7.80
2022-12-29T15:57:50.623Z,7.70
2022-12-29T16:00:26.764Z,7.90
2022-12-29T16:02:55.529Z,7.70
2022-12-29T16:05:24.862Z,7.70
2022-12-29T16:07:56.572Z,7.80
2022-12-29T16:10:31.355Z,7.70
2022-12-29T16:13:05.073Z,7.70
2022-12-29T16:15:33.113Z,7.60
2022-12-29T16:18:01.388Z,7.40
2022-12-29T16:20:39.529Z,7.30
2022-12-29T16:23:07.383Z,7.50
2022-12-29T16:25:38.319Z,7.40
2022-12-29T16:28:17.605Z,7.40
2022-12-29T16:30:45.621Z,7.40
2022-12-29T16:33:32.917Z,7.40
2022-12-29T16:36:02.295Z,7.20
2022-12-29T16:38:32.965Z,7.10
2022-12-29T16:41:03.368Z,7.20
2022-12-29T16:43:32.544Z,7.20
2022-12-29T16:46:20.458Z,7.10
2022-12-29T16:48:49.833Z,7.10
2022-12-29T16:51:20.732Z,7.10
2022-12-29T16:53:50.855Z,7.20
2022-12-29T16:56:19.745Z,7.10
2022-12-29T16:58:49.231Z,7.10
2022-12-29T17:01:26.035Z,7.00
2022-12-29T17:03:59.012Z,6.90
2022-12-29T17:06:28.264Z,7.00
2022-12-29T17:08:56.087Z,7.10
2022-12-29T17:11:43.591Z,7.00
2022-12-29T17:14:20.430Z,6.80
2022-12-29T17:16:51.181Z,6.70
2022-12-29T17:19:19.549Z,6.70
2022-12-29T17:21:48.895Z,6.70
2022-12-29T17:24:18.662Z,6.50
2022-12-29T17:26:46.829Z,6.40
2022-12-29T17:29:26.416Z,6.30
2022-12-29T17:31:55.274Z,6.40
2022-12-29T17:34:25.579Z,6.40
2022-12-29T17:36:55.140Z,6.30
2022-12-29T17:39:23.177Z,6.20
2022-12-29T17:41:51.262Z,6.00
2022-12-29T17:44:19.797Z,6.10
2022-12-29T17:46:48.055Z,6.10
2022-12-29T17:49:17.386Z,6.20
2022-12-29T17:51:45.770Z,6.40
2022-12-29T17:58:02.194Z,5.90
2022-12-29T18:08:06.796Z,5.90
2022-12-29T18:10:34.691Z,5.90
2022-12-29T18:13:55.582Z,6.00
2022-12-29T18:16:24.838Z,5.90
2022-12-29T18:18:52.802Z,6.00
2022-12-29T18:22:34.005Z,6.10
2022-12-29T18:25:25.935Z,5.80
2022-12-29T18:27:53.707Z,5.80
2022-12-29T18:30:21.484Z,5.80
2022-12-29T18:33:02.627Z,5.80
2022-12-29T18:35:33.693Z,5.90
2022-12-29T18:38:01.494Z,6.00
2022-12-29T18:40:29.579Z,5.90
2022-12-29T18:42:57.431Z,5.80
2022-12-29T18:45:25.628Z,5.80
2022-12-29T18:47:53.624Z,5.70
2022-12-29T18:50:22.837Z,5.80
2022-12-29T18:52:50.821Z,5.80
2022-12-29T18:55:19.773Z,5.70
2022-12-29T18:57:47.798Z,5.70
2022-12-29T19:00:16.744Z,5.70
2022-12-29T19:02:45.116Z,5.50
2022-12-29T19:05:22.257Z,5.30
2022-12-29T19:07:50.252Z,5.20
2022-12-29T19:10:18.470Z,5.20
2022-12-29T19:12:46.286Z,5.20
2022-12-29T19:15:22.023Z,5.30
2022-12-29T19:18:08.285Z,5.40
2022-12-29T19:20:40.873Z,5.50
2022-12-29T19:23:10.536Z,5.30
2022-12-29T19:25:38.824Z,5.30
2022-12-29T19:28:06.678Z,5.30
2022-12-29T19:30:35.038Z,5.30
2022-12-29T19:33:09.640Z,5.20
2022-12-29T19:35:38.947Z,5.30
2022-12-29T19:38:06.970Z,5.20
2022-12-29T19:40:34.793Z,5.20
2022-12-29T19:43:02.645Z,5.40
2022-12-29T19:45:30.498Z,5.40
2022-12-29T19:47:58.306Z,5.40
2022-12-29T19:50:26.136Z,5.30
2022-12-29T19:53:04.534Z,5.40
2022-12-29T19:55:33.231Z,5.10
2022-12-29T19:58:01.169Z,5.00
2022-12-29T20:00:29.000Z,4.90
2022-12-29T20:02:57.155Z,5.10
2022-12-29T20:05:25.049Z,5.10
2022-12-29T20:07:52.869Z,5.30
2022-12-29T20:10:22.136Z,5.40
2022-12-29T20:12:49.947Z,5.30
2022-12-29T20:15:17.951Z,5.10
2022-12-29T20:18:12.568Z,5.10
2022-12-29T20:20:34.773Z,5.00
2022-12-29T20:23:02.599Z,5.10
2022-12-29T20:25:44.693Z,5.10
2022-12-29T20:28:14.252Z,5.20
2022-12-29T20:30:42.142Z,4.90
2022-12-29T20:33:09.990Z,5.00
2022-12-29T20:35:37.898Z,5.20
2022-12-29T20:38:06.166Z,5.10
2022-12-29T20:40:40.879Z,5.00
2022-12-29T20:43:14.503Z,5.00
2022-12-29T20:45:43.273Z,5.00
2022-12-29T20:48:11.197Z,5.10
2022-12-29T20:50:39.090Z,5.30
2022-12-29T20:53:06.965Z,5.20
2022-12-29T20:55:38.014Z,5.20
2022-12-29T20:58:24.944Z,5.30
2022-12-29T21:00:53.372Z,5.40
2022-12-29T21:03:21.247Z,5.30
2022-12-29T21:05:49.122Z,5.20
2022-12-29T21:08:16.918Z,5.20
2022-12-29T21:10:48.473Z,5.20
2022-12-29T21:13:16.531Z,5.20
2022-12-29T21:15:44.383Z,5.10
2022-12-29T21:18:12.194Z,5.10
2022-12-29T21:20:40.028Z,5.10
2022-12-29T21:23:07.830Z,5.00
2022-12-29T21:25:37.925Z,4.90
2022-12-29T21:28:07.552Z,4.90
2022-12-29T21:30:35.502Z,4.90
2022-12-29T21:33:03.563Z,4.90
2022-12-29T21:35:31.457Z,4.90
2022-12-29T21:37:59.248Z,4.90
2022-12-29T21:40:27.067Z,5.00
2022-12-29T21:42:54.918Z,5.00
2022-12-29T21:45:25.844Z,4.90
2022-12-29T21:48:11.157Z,4.90
2022-12-29T21:51:01.162Z,4.90
2022-12-29T21:53:38.532Z,5.00
2022-12-29T21:56:07.568Z,4.80
2022-12-29T21:58:55.514Z,4.70
2022-12-29T22:01:42.723Z,4.70
2022-12-29T22:04:30.611Z,4.70
2022-12-29T22:07:16.051Z,4.80
2022-12-29T22:10:01.541Z,4.80
2022-12-29T22:12:47.987Z,4.90
2022-12-29T22:15:15.806Z,4.80
2022-12-29T22:17:48.879Z,4.70
2022-12-29T22:20:17.189Z,4.90
2022-12-29T22:22:45.029Z,4.80
2022-12-29T22:25:12.884Z,4.80
2022-12-29T22:27:40.732Z,4.80
2022-12-29T22:30:09.059Z,4.70
2022-12-29T22:32:36.871Z,4.80
2022-12-29T22:35:08.254Z,4.80
2022-12-29T22:37:36.368Z,4.90
2022-12-29T22:40:04.600Z,4.80
2022-12-29T22:42:32.496Z,4.80
2022-12-29T22:45:00.292Z,4.70
2022-12-29T22:47:28.149Z,4.80
2022-12-29T22:49:55.983Z,4.80
2022-12-29T22:52:25.173Z,4.90
2022-12-29T22:54:53.043Z,4.90
2022-12-29T22:57:20.892Z,4.90
2022-12-29T22:59:48.785Z,4.90
2022-12-29T23:02:16.822Z,4.80
2022-12-29T23:05:02.808Z,4.90
2022-12-29T23:07:33.276Z,4.80
2022-12-29T23:10:01.164Z,4.60
2022-12-29T23:12:30.438Z,4.60
2022-12-29T23:14:58.397Z,4.70
2022-12-29T23:17:26.304Z,4.70
2022-12-29T23:19:54.270Z,5.00
2022-12-29T23:22:22.978Z,5.00
2022-12-29T23:24:52.145Z,5.10
2022-12-29T23:27:19.965Z,5.10
2022-12-29T23:29:48.010Z,5.30
2022-12-29T23:32:15.849Z,5.20
2022-12-29T23:34:43.719Z,5.20
2022-12-29T23:37:11.552Z,5.30
2022-12-29T23:39:39.399Z,5.20
2022-12-29T23:42:08.665Z,5.30
2022-12-29T23:44:36.529Z,5.40
2022-12-29T23:47:04.479Z,5.30
2022-12-29T23:49:32.388Z,5.30
2022-12-29T23:52:00.205Z,5.30
2022-12-29T23:54:28.032Z,5.40
2022-12-29T23:56:55.836Z,5.40
2022-12-29T23:59:25.763Z,5.40
